createdAt,value
2018-08-18T04:00:31.940Z,28.00
2018-08-18T04:01:31.916Z,32.00
2018-08-18T04:02:31.881Z,32.00
2018-08-18T04:03:31.898Z,36.00
2018-08-18T04:04:31.874Z,40.00
2018-08-18T04:05:31.856Z,48.00
2018-08-18T04:06:31.841Z,52.00
2018-08-18T04:07:31.833Z,60.00
2018-08-18T04:08:31.820Z,64.00
2018-08-18T04:09:31.831Z,68.00
2018-08-18T04:10:31.799Z,76.00
2018-08-18T04:11:31.781Z,80.00
2018-08-18T04:12:31.774Z,92.00
2018-08-18T04:13:31.790Z,100.00
2018-08-18T04:14:31.765Z,120.00
2018-08-18T04:15:31.750Z,128.00
2018-08-18T04:16:31.725Z,140.00
2018-08-18T04:17:31.713Z,148.00
2018-08-18T04:18:31.706Z,168.00
2018-08-18T04:19:31.702Z,176.00
2018-08-18T04:20:31.688Z,192.00
2018-08-18T04:21:31.675Z,200.00
2018-08-18T04:22:31.666Z,208.00
2018-08-18T04:23:31.651Z,224.00
2018-08-18T04:24:31.652Z,232.00
2018-08-18T04:25:31.629Z,248.00
2018-08-18T04:26:31.620Z,272.00
2018-08-18T04:27:31.610Z,296.00
2018-08-18T04:28:31.596Z,320.00
2018-08-18T04:29:31.609Z,348.00
2018-08-18T04:30:31.570Z,368.00
2018-08-18T04:31:31.562Z,380.00
2018-08-18T04:32:31.553Z,400.00
2018-08-18T04:33:31.542Z,408.00
2018-08-18T04:34:31.530Z,420.00
2018-08-18T04:35:31.529Z,440.00
2018-08-18T04:36:31.511Z,448.00
2018-08-18T04:37:31.497Z,452.00
2018-08-18T04:38:31.484Z,448.00
2018-08-18T04:39:31.477Z,460.00
2018-08-18T04:40:31.475Z,492.00
2018-08-18T04:41:31.452Z,528.00
2018-08-18T04:42:31.464Z,568.00
2018-08-18T04:43:31.429Z,576.00
2018-08-18T04:44:31.421Z,588.00
2018-08-18T04:45:31.434Z,588.00
2018-08-18T04:46:31.396Z,604.00
2018-08-18T04:47:31.384Z,616.00
2018-08-18T04:48:31.376Z,632.00
2018-08-18T04:49:31.380Z,656.00
2018-08-18T04:50:31.402Z,672.00
2018-08-18T04:51:31.353Z,680.00
2018-08-18T04:52:31.330Z,680.00
2018-08-18T04:53:31.322Z,668.00
2018-08-18T04:54:31.312Z,672.00
2018-08-18T04:55:31.307Z,672.00
2018-08-18T04:56:31.286Z,668.00
2018-08-18T04:57:31.272Z,680.00
2018-08-18T04:58:31.272Z,712.00
2018-08-18T04:59:31.313Z,728.00
2018-08-18T05:00:31.254Z,736.00
2018-08-18T05:01:31.235Z,744.00
2018-08-18T05:02:31.220Z,740.00
2018-08-18T05:03:31.313Z,728.00
2018-08-18T05:04:31.199Z,716.00
2018-08-18T05:05:31.194Z,704.00
2018-08-18T05:06:31.175Z,708.00
2018-08-18T05:07:31.165Z,716.00
2018-08-18T05:08:31.154Z,736.00
2018-08-18T05:09:31.140Z,756.00
2018-08-18T05:10:31.144Z,800.00
2018-08-18T05:11:31.166Z,832.00
2018-08-18T05:12:31.109Z,856.00
2018-08-18T05:13:31.098Z,868.00
2018-08-18T05:14:31.085Z,896.00
2018-08-18T05:15:31.089Z,956.00
2018-08-18T05:16:31.065Z,1024.00
2018-08-18T05:17:31.105Z,1052.00
2018-08-18T05:18:31.045Z,1032.00
2018-08-18T05:19:31.033Z,1048.00
2018-08-18T05:20:31.033Z,1108.00
2018-08-18T05:21:31.014Z,1140.00
2018-08-18T05:22:30.997Z,1140.00
2018-08-18T05:23:30.988Z,1124.00
2018-08-18T05:24:30.976Z,1180.00
2018-08-18T05:25:30.985Z,1256.00
2018-08-18T05:26:30.958Z,1264.00
2018-08-18T05:27:30.943Z,1208.00
2018-08-18T05:28:30.941Z,1192.00
2018-08-18T05:29:30.921Z,1300.00
2018-08-18T05:30:30.921Z,1392.00
2018-08-18T05:31:30.902Z,1408.00
2018-08-18T05:32:30.891Z,1376.00
2018-08-18T05:33:30.883Z,1412.00
2018-08-18T05:34:30.871Z,1420.00
2018-08-18T05:35:30.869Z,1516.00
2018-08-18T05:36:30.880Z,1604.00
2018-08-18T05:37:30.834Z,1656.00
2018-08-18T05:38:30.821Z,1616.00
2018-08-18T05:39:30.811Z,1596.00
2018-08-18T05:40:30.808Z,1576.00
2018-08-18T05:41:30.793Z,1616.00
2018-08-18T05:42:30.787Z,1632.00
2018-08-18T05:43:30.767Z,1672.00
2018-08-18T05:44:30.769Z,1744.00
2018-08-18T05:45:30.758Z,1796.00
2018-08-18T05:46:30.739Z,1856.00
2018-08-18T05:47:30.777Z,1924.00
2018-08-18T05:48:30.713Z,1984.00
2018-08-18T05:49:30.722Z,2056.00
2018-08-18T05:50:30.705Z,2128.00
2018-08-18T05:51:30.676Z,2208.00
2018-08-18T05:52:30.685Z,2344.00
2018-08-18T05:53:30.656Z,2412.00
2018-08-18T05:54:30.654Z,2344.00
2018-08-18T05:55:30.643Z,2264.00
2018-08-18T05:56:30.625Z,2352.00
2018-08-18T05:57:30.615Z,2520.00
2018-08-18T05:58:30.607Z,2572.00
2018-08-18T05:59:30.588Z,2520.00
2018-08-18T06:00:30.592Z,2508.00
2018-08-18T06:01:30.566Z,2540.00
2018-08-18T06:02:30.555Z,2504.00
2018-08-18T06:03:30.546Z,2440.00
2018-08-18T06:04:30.538Z,2436.00
2018-08-18T06:05:30.543Z,2528.00
2018-08-18T06:06:30.513Z,2520.00
2018-08-18T06:07:30.514Z,2516.00
2018-08-18T06:08:30.507Z,2528.00
2018-08-18T06:09:30.482Z,2536.00
2018-08-18T06:10:30.480Z,2548.00
2018-08-18T06:11:30.457Z,2636.00
2018-08-18T06:12:30.485Z,2792.00
2018-08-18T06:13:30.435Z,2936.00
2018-08-18T06:14:30.428Z,3032.00
2018-08-18T06:15:30.434Z,3136.00
2018-08-18T06:16:30.407Z,3176.00
2018-08-18T06:17:30.391Z,3068.00
2018-08-18T06:18:30.407Z,2972.00
2018-08-18T06:19:30.367Z,2948.00
2018-08-18T06:20:30.378Z,2904.00
2018-08-18T06:21:30.354Z,2848.00
2018-08-18T06:22:30.338Z,2868.00
2018-08-18T06:23:30.325Z,2876.00
2018-08-18T06:24:30.318Z,2860.00
2018-08-18T06:25:30.315Z,2868.00
2018-08-18T06:26:30.291Z,2948.00
2018-08-18T06:27:30.281Z,3104.00
2018-08-18T06:28:30.270Z,3236.00
2018-08-18T06:29:30.256Z,3256.00
2018-08-18T06:30:30.263Z,3276.00
2018-08-18T06:31:30.236Z,3340.00
2018-08-18T06:32:30.246Z,3372.00
2018-08-18T06:33:30.218Z,3416.00
2018-08-18T06:34:30.240Z,3340.00
2018-08-18T06:35:30.217Z,3228.00
2018-08-18T06:36:30.186Z,3232.00
2018-08-18T06:37:30.192Z,3344.00
2018-08-18T06:38:30.164Z,3560.00
2018-08-18T06:39:30.148Z,3972.00
2018-08-18T06:40:30.141Z,4264.00
2018-08-18T06:41:30.219Z,4400.00
2018-08-18T06:42:30.123Z,4272.00
2018-08-18T06:43:30.104Z,3972.00
2018-08-18T06:44:30.101Z,3912.00
2018-08-18T06:45:30.087Z,3936.00
2018-08-18T06:46:30.094Z,4168.00
2018-08-18T06:47:30.078Z,4548.00
2018-08-18T06:48:30.046Z,4868.00
2018-08-18T06:49:30.037Z,4940.00
2018-08-18T06:50:30.029Z,4800.00
2018-08-18T06:51:30.026Z,4640.00
2018-08-18T06:52:30.006Z,4552.00
2018-08-18T06:53:29.997Z,4680.00
2018-08-18T06:54:30.105Z,4868.00
2018-08-18T06:55:29.973Z,5012.00
2018-08-18T06:56:29.973Z,5032.00
2018-08-18T06:57:29.948Z,5388.00
2018-08-18T06:58:29.945Z,5812.00
2018-08-18T06:59:29.926Z,5912.00
2018-08-18T07:00:29.916Z,5804.00
2018-08-18T07:01:29.919Z,5760.00
2018-08-18T07:02:29.895Z,5732.00
2018-08-18T07:03:29.887Z,5756.00
2018-08-18T07:04:29.892Z,5772.00
2018-08-18T07:05:29.876Z,5824.00
2018-08-18T07:06:29.862Z,5940.00
2018-08-18T07:07:29.837Z,6160.00
2018-08-18T07:08:29.827Z,6388.00
2018-08-18T07:09:29.819Z,6412.00
2018-08-18T07:10:29.805Z,6244.00
2018-08-18T07:11:29.806Z,6064.00
2018-08-18T07:12:29.784Z,5972.00
2018-08-18T07:13:29.772Z,5844.00
2018-08-18T07:14:29.778Z,5852.00
2018-08-18T07:15:29.749Z,5960.00
2018-08-18T07:16:29.763Z,6144.00
2018-08-18T07:17:29.729Z,6192.00
2018-08-18T07:18:29.715Z,6396.00
2018-08-18T07:19:29.747Z,6572.00
2018-08-18T07:20:29.694Z,6340.00
2018-08-18T07:21:29.697Z,5832.00
2018-08-18T07:22:29.674Z,5976.00
2018-08-18T07:23:29.660Z,6040.00
2018-08-18T07:24:29.651Z,6248.00
2018-08-18T07:25:29.641Z,6376.00
2018-08-18T07:26:29.642Z,6460.00
2018-08-18T07:27:29.626Z,6596.00
2018-08-18T07:28:29.680Z,6600.00
2018-08-18T07:29:29.604Z,6788.00
2018-08-18T07:30:29.583Z,6952.00
2018-08-18T07:31:29.583Z,6724.00
2018-08-18T07:32:29.564Z,6572.00
2018-08-18T07:33:29.551Z,6568.00
2018-08-18T07:34:29.543Z,6704.00
2018-08-18T07:35:29.529Z,6724.00
2018-08-18T07:36:29.556Z,6272.00
2018-08-18T07:37:29.569Z,5752.00
2018-08-18T07:38:29.496Z,5408.00
2018-08-18T07:39:29.498Z,5268.00
2018-08-18T07:40:29.473Z,5252.00
2018-08-18T07:41:29.473Z,5316.00
2018-08-18T07:42:29.488Z,5468.00
2018-08-18T07:43:29.438Z,5520.00
2018-08-18T07:44:29.431Z,5480.00
2018-08-18T07:45:29.425Z,5464.00
2018-08-18T07:46:29.479Z,5424.00
2018-08-18T07:47:29.398Z,5476.00
2018-08-18T07:48:29.384Z,5600.00
2018-08-18T07:49:29.377Z,5812.00
2018-08-18T07:50:29.361Z,5960.00
2018-08-18T07:51:29.363Z,5888.00
2018-08-18T07:52:29.343Z,5716.00
2018-08-18T07:53:29.354Z,5628.00
2018-08-18T07:54:29.320Z,5576.00
2018-08-18T07:55:29.306Z,5452.00
2018-08-18T07:56:29.311Z,5340.00
2018-08-18T07:57:29.286Z,5228.00
2018-08-18T07:58:29.279Z,5136.00
2018-08-18T07:59:29.267Z,5256.00
2018-08-18T08:00:29.252Z,5600.00
2018-08-18T08:01:29.336Z,6052.00
2018-08-18T08:02:29.231Z,6292.00
2018-08-18T08:03:29.218Z,6308.00
2018-08-18T08:04:29.211Z,6336.00
2018-08-18T08:05:29.223Z,6396.00
2018-08-18T08:06:29.197Z,6460.00
2018-08-18T08:07:29.175Z,6576.00
2018-08-18T08:08:29.166Z,6752.00
2018-08-18T08:09:29.154Z,6988.00
2018-08-18T08:10:29.145Z,7504.00
2018-08-18T08:11:29.147Z,7560.00
2018-08-18T08:12:29.134Z,7308.00
2018-08-18T08:13:29.113Z,6976.00
2018-08-18T08:14:29.097Z,6928.00
2018-08-18T08:15:29.094Z,7140.00
2018-08-18T08:16:29.090Z,7264.00
2018-08-18T08:17:29.066Z,7192.00
2018-08-18T08:18:29.055Z,7132.00
2018-08-18T08:19:29.042Z,7164.00
2018-08-18T08:20:29.034Z,7448.00
2018-08-18T08:21:29.035Z,7804.00
2018-08-18T08:22:29.010Z,8052.00
2018-08-18T08:23:28.999Z,8112.00
2018-08-18T08:24:28.987Z,8016.00
2018-08-18T08:25:28.978Z,8004.00
2018-08-18T08:26:28.981Z,8312.00
2018-08-18T08:27:28.954Z,8936.00
2018-08-18T08:28:28.945Z,9664.00
2018-08-18T08:29:28.955Z,9896.00
2018-08-18T08:30:28.930Z,9328.00
2018-08-18T08:31:28.930Z,8512.00
2018-08-18T08:32:28.902Z,7988.00
2018-08-18T08:33:28.890Z,7772.00
2018-08-18T08:34:28.875Z,7840.00
2018-08-18T08:35:28.890Z,7844.00
2018-08-18T08:36:28.878Z,7856.00
2018-08-18T08:37:28.846Z,7684.00
2018-08-18T08:38:28.831Z,7248.00
2018-08-18T08:39:28.824Z,6768.00
2018-08-18T08:40:28.813Z,6168.00
2018-08-18T08:41:28.809Z,5940.00
2018-08-18T08:42:28.804Z,5980.00
2018-08-18T08:43:28.806Z,6184.00
2018-08-18T08:44:28.764Z,6488.00
2018-08-18T08:45:28.791Z,6892.00
2018-08-18T08:46:28.751Z,7264.00
2018-08-18T08:47:28.744Z,7544.00
2018-08-18T08:48:28.729Z,7968.00
2018-08-18T08:49:28.713Z,8340.00
2018-08-18T08:50:28.703Z,8504.00
2018-08-18T08:51:28.690Z,8536.00
2018-08-18T08:52:28.694Z,8396.00
2018-08-18T08:53:28.704Z,8432.00
2018-08-18T08:54:28.661Z,8764.00
2018-08-18T08:55:28.644Z,9044.00
2018-08-18T08:56:28.638Z,9052.00
2018-08-18T08:57:28.635Z,9096.00
2018-08-18T08:58:28.614Z,9152.00
2018-08-18T08:59:28.600Z,8992.00
2018-08-18T09:00:28.589Z,9184.00
2018-08-18T09:01:28.670Z,9764.00
2018-08-18T09:02:28.577Z,8836.00
2018-08-18T09:03:28.557Z,8216.00
2018-08-18T09:04:28.547Z,8016.00
2018-08-18T09:05:28.544Z,8116.00
2018-08-18T09:06:28.539Z,8128.00
2018-08-18T09:07:28.524Z,7932.00
2018-08-18T09:08:28.519Z,7728.00
2018-08-18T09:09:28.495Z,7584.00
2018-08-18T09:10:28.481Z,7472.00
2018-08-18T09:11:28.470Z,7368.00
2018-08-18T09:12:28.468Z,7308.00
2018-08-18T09:13:28.446Z,7352.00
2018-08-18T09:14:28.439Z,7460.00
2018-08-18T09:15:28.423Z,7760.00
2018-08-18T09:16:28.412Z,8148.00
2018-08-18T09:17:28.414Z,8024.00
2018-08-18T09:18:28.389Z,7908.00
2018-08-18T09:19:28.379Z,7680.00
2018-08-18T09:20:28.372Z,7632.00
2018-08-18T09:21:28.360Z,7640.00
2018-08-18T09:22:28.359Z,7516.00
2018-08-18T09:23:28.337Z,7392.00
2018-08-18T09:24:28.324Z,7340.00
2018-08-18T09:25:28.313Z,7476.00
2018-08-18T09:26:28.405Z,7664.00
2018-08-18T09:27:28.323Z,7568.00
2018-08-18T09:28:28.289Z,7188.00
2018-08-18T09:29:28.276Z,6592.00
2018-08-18T09:30:28.258Z,6140.00
2018-08-18T09:31:28.260Z,5668.00
2018-08-18T09:32:28.336Z,5296.00
2018-08-18T09:33:28.227Z,4896.00
2018-08-18T09:34:28.214Z,4576.00
2018-08-18T09:35:28.203Z,4436.00
2018-08-18T09:36:28.194Z,4352.00
2018-08-18T09:37:28.229Z,4336.00
2018-08-18T09:38:28.171Z,4360.00
2018-08-18T09:39:28.160Z,4448.00
2018-08-18T09:40:28.158Z,4552.00
2018-08-18T09:41:28.152Z,4712.00
2018-08-18T09:42:28.139Z,4852.00
2018-08-18T09:43:28.115Z,5008.00
2018-08-18T09:44:28.105Z,5172.00
2018-08-18T09:45:28.165Z,5312.00
2018-08-18T09:46:28.088Z,5380.00
2018-08-18T09:47:28.083Z,5520.00
2018-08-18T09:48:28.064Z,5592.00
2018-08-18T09:49:28.049Z,5692.00
2018-08-18T09:50:28.037Z,5764.00
2018-08-18T09:51:28.026Z,5776.00
2018-08-18T09:52:28.029Z,5856.00
2018-08-18T09:53:28.010Z,6056.00
2018-08-18T09:54:27.994Z,6288.00
2018-08-18T09:55:27.989Z,6492.00
2018-08-18T09:56:27.987Z,6828.00
2018-08-18T09:57:27.981Z,7124.00
2018-08-18T09:58:27.950Z,7384.00
2018-08-18T09:59:27.963Z,7772.00
2018-08-18T10:00:27.929Z,8040.00
2018-08-18T10:01:27.919Z,8204.00
2018-08-18T10:02:27.916Z,8388.00
2018-08-18T10:03:27.894Z,8744.00
2018-08-18T10:04:27.897Z,8908.00
2018-08-18T10:05:27.876Z,9020.00
2018-08-18T10:06:27.944Z,8804.00
2018-08-18T10:07:27.866Z,8632.00
2018-08-18T10:08:27.838Z,8240.00
2018-08-18T10:09:27.828Z,7988.00
2018-08-18T10:10:27.823Z,7980.00
2018-08-18T10:11:27.806Z,8184.00
2018-08-18T10:12:27.806Z,8364.00
2018-08-18T10:13:27.783Z,8556.00
2018-08-18T10:14:27.773Z,8756.00
2018-08-18T10:15:27.900Z,8688.00
2018-08-18T10:16:27.753Z,8336.00
2018-08-18T10:17:27.773Z,8064.00
2018-08-18T10:18:27.729Z,8084.00
2018-08-18T10:19:27.722Z,8244.00
2018-08-18T10:20:27.707Z,8400.00
2018-08-18T10:21:27.695Z,8500.00
2018-08-18T10:22:27.697Z,8412.00
2018-08-18T10:23:27.675Z,8312.00
2018-08-18T10:24:27.670Z,8332.00
2018-08-18T10:25:27.834Z,8308.00
2018-08-18T10:26:27.883Z,8368.00
2018-08-18T10:27:27.745Z,8572.00
2018-08-18T10:28:27.703Z,8796.00
2018-08-18T10:29:27.794Z,8884.00
2018-08-18T10:30:27.599Z,8964.00
2018-08-18T10:31:27.585Z,9360.00
2018-08-18T10:32:32.833Z,9760.00
2018-08-18T10:33:27.661Z,10008.00
2018-08-18T10:34:27.557Z,9896.00
2018-08-18T10:35:27.677Z,9516.00
2018-08-18T10:36:27.532Z,9096.00
2018-08-18T10:37:27.532Z,8868.00
2018-08-18T10:38:27.516Z,8832.00
2018-08-18T10:39:27.524Z,8776.00
2018-08-18T10:40:27.491Z,8568.00
2018-08-18T10:41:27.474Z,8384.00
2018-08-18T10:42:27.471Z,8256.00
2018-08-18T10:43:27.481Z,8172.00
2018-08-18T10:44:27.442Z,8284.00
2018-08-18T10:45:27.587Z,8468.00
2018-08-18T10:46:27.421Z,8628.00
2018-08-18T10:47:27.689Z,8784.00
2018-08-18T10:48:27.488Z,9028.00
2018-08-18T10:49:27.388Z,9144.00
2018-08-18T10:50:27.377Z,9520.00
2018-08-18T10:51:27.647Z,9992.00
2018-08-18T10:52:27.428Z,10420.00
2018-08-18T10:53:27.354Z,10952.00
2018-08-18T10:54:27.333Z,11376.00
2018-08-18T10:55:27.326Z,11504.00
2018-08-18T10:56:27.311Z,11420.00
2018-08-18T10:57:27.317Z,11312.00
2018-08-18T10:58:27.306Z,11264.00
2018-08-18T10:59:27.277Z,11820.00
2018-08-18T11:00:27.332Z,12480.00
2018-08-18T11:01:27.273Z,12268.00
2018-08-18T11:02:27.247Z,12132.00
2018-08-18T11:03:27.246Z,11852.00
2018-08-18T11:04:27.223Z,11424.00
2018-08-18T11:05:27.304Z,10956.00
2018-08-18T11:06:27.313Z,10648.00
2018-08-18T11:07:27.193Z,10384.00
2018-08-18T11:08:27.194Z,10076.00
2018-08-18T11:09:27.172Z,9864.00
2018-08-18T11:10:27.158Z,9640.00
2018-08-18T11:11:27.146Z,9372.00
2018-08-18T11:12:27.137Z,9348.00
2018-08-18T11:13:27.153Z,9216.00
2018-08-18T11:14:27.118Z,9036.00
2018-08-18T11:15:27.102Z,9048.00
2018-08-18T11:16:27.094Z,8972.00
2018-08-18T11:17:27.080Z,8912.00
2018-08-18T11:18:27.084Z,8992.00
2018-08-18T11:19:27.058Z,9208.00
2018-08-18T11:20:27.056Z,9476.00
2018-08-18T11:21:27.038Z,10236.00
2018-08-18T11:22:27.027Z,10620.00
2018-08-18T11:23:27.027Z,10436.00
2018-08-18T11:24:27.006Z,10420.00
2018-08-18T11:25:26.996Z,10304.00
2018-08-18T11:26:26.983Z,10132.00
2018-08-18T11:27:26.975Z,10160.00
2018-08-18T11:28:27.044Z,9996.00
2018-08-18T11:29:26.951Z,9548.00
2018-08-18T11:30:26.939Z,9020.00
2018-08-18T11:31:26.928Z,8560.00
2018-08-18T11:32:26.916Z,7864.00
2018-08-18T11:33:26.919Z,7152.00
2018-08-18T11:34:26.893Z,6476.00
2018-08-18T11:35:26.884Z,5992.00
2018-08-18T11:36:26.874Z,5892.00
2018-08-18T11:37:26.863Z,5864.00
2018-08-18T11:38:26.866Z,5852.00
2018-08-18T11:39:26.841Z,5776.00
2018-08-18T11:40:26.835Z,5680.00
2018-08-18T11:41:26.869Z,5812.00
2018-08-18T11:42:26.807Z,6052.00
2018-08-18T11:43:26.808Z,6200.00
2018-08-18T11:44:26.785Z,6320.00
2018-08-18T11:45:26.775Z,6396.00
2018-08-18T11:46:26.766Z,6480.00
2018-08-18T11:47:26.755Z,6620.00
2018-08-18T11:48:26.754Z,6712.00
2018-08-18T11:49:26.733Z,6528.00
2018-08-18T11:50:26.720Z,6596.00
2018-08-18T11:51:26.711Z,6556.00
2018-08-18T11:52:26.697Z,6404.00
2018-08-18T11:53:26.698Z,6488.00
2018-08-18T11:54:26.675Z,6660.00
2018-08-18T11:55:26.670Z,6612.00
2018-08-18T11:56:26.655Z,6036.00
2018-08-18T11:57:26.641Z,5568.00
2018-08-18T11:58:26.644Z,5348.00
2018-08-18T11:59:26.624Z,5244.00
2018-08-18T12:00:26.611Z,5100.00
2018-08-18T12:01:26.604Z,5044.00
2018-08-18T12:02:26.588Z,4816.00
2018-08-18T12:03:26.590Z,4664.00
2018-08-18T12:04:26.566Z,4540.00
2018-08-18T12:05:26.555Z,4424.00
2018-08-18T12:06:26.546Z,4408.00
2018-08-18T12:07:26.534Z,4476.00
2018-08-18T12:08:26.531Z,4376.00
2018-08-18T12:09:26.528Z,4360.00
2018-08-18T12:10:26.536Z,4260.00
2018-08-18T12:11:26.491Z,4124.00
2018-08-18T12:12:26.479Z,4084.00
2018-08-18T12:13:26.482Z,4072.00
2018-08-18T12:14:26.459Z,4048.00
2018-08-18T12:15:26.445Z,4024.00
2018-08-18T12:16:26.446Z,4004.00
2018-08-18T12:17:26.424Z,3960.00
2018-08-18T12:18:26.451Z,3908.00
2018-08-18T12:19:26.400Z,3872.00
2018-08-18T12:20:26.402Z,3872.00
2018-08-18T12:21:26.380Z,3844.00
2018-08-18T12:22:26.382Z,3812.00
2018-08-18T12:23:26.367Z,3776.00
2018-08-18T12:24:26.349Z,3760.00
2018-08-18T12:25:26.335Z,3752.00
2018-08-18T12:26:26.325Z,3724.00
2018-08-18T12:27:26.320Z,3668.00
2018-08-18T12:28:26.315Z,3676.00
2018-08-18T12:29:26.419Z,3700.00
2018-08-18T12:30:26.285Z,3704.00
2018-08-18T12:31:26.272Z,3704.00
2018-08-18T12:32:26.264Z,3776.00
2018-08-18T12:33:26.262Z,3880.00
2018-08-18T12:34:26.242Z,4028.00
2018-08-18T12:35:26.230Z,4124.00
2018-08-18T12:36:26.295Z,4048.00
2018-08-18T12:37:26.233Z,3948.00
2018-08-18T12:38:26.207Z,3764.00
2018-08-18T12:39:26.185Z,3640.00
2018-08-18T12:40:26.172Z,3612.00
2018-08-18T12:41:26.164Z,3696.00
2018-08-18T12:42:26.153Z,3548.00
2018-08-18T12:43:26.211Z,3500.00
2018-08-18T12:44:26.128Z,3464.00
2018-08-18T12:45:26.117Z,3424.00
2018-08-18T12:46:26.110Z,3376.00
2018-08-18T12:47:26.102Z,3340.00
2018-08-18T12:48:26.117Z,3312.00
2018-08-18T12:49:26.080Z,3300.00
2018-08-18T12:50:26.063Z,3272.00
2018-08-18T12:51:26.053Z,3220.00
2018-08-18T12:52:26.040Z,3172.00
2018-08-18T12:53:26.032Z,3160.00
2018-08-18T12:54:26.029Z,3156.00
2018-08-18T12:55:26.008Z,3172.00
2018-08-18T12:56:25.997Z,3184.00
2018-08-18T12:57:25.992Z,3180.00
2018-08-18T12:58:26.161Z,3184.00
2018-08-18T12:59:25.976Z,3160.00
2018-08-18T13:00:25.959Z,3116.00
2018-08-18T13:01:25.941Z,3064.00
2018-08-18T13:02:25.934Z,3024.00
2018-08-18T13:03:25.929Z,3020.00
2018-08-18T13:04:26.002Z,3028.00
2018-08-18T13:05:25.900Z,3052.00
2018-08-18T13:06:25.888Z,3040.00
2018-08-18T13:07:25.880Z,2984.00
2018-08-18T13:08:25.867Z,2932.00
2018-08-18T13:09:25.869Z,2900.00
2018-08-18T13:10:25.844Z,2892.00
2018-08-18T13:11:25.845Z,2872.00
2018-08-18T13:12:25.822Z,2828.00
2018-08-18T13:13:25.812Z,2764.00
2018-08-18T13:14:25.854Z,2724.00
2018-08-18T13:15:25.808Z,2700.00
2018-08-18T13:16:25.779Z,2708.00
2018-08-18T13:17:25.768Z,2696.00
2018-08-18T13:18:25.760Z,2684.00
2018-08-18T13:19:25.761Z,2672.00
2018-08-18T13:20:25.734Z,2660.00
2018-08-18T13:21:25.727Z,2644.00
2018-08-18T13:22:25.715Z,2640.00
2018-08-18T13:23:25.703Z,2656.00
2018-08-18T13:24:25.703Z,2644.00
2018-08-18T13:25:25.684Z,2600.00
2018-08-18T13:26:25.729Z,2532.00
2018-08-18T13:27:25.662Z,2476.00
2018-08-18T13:28:25.647Z,2456.00
2018-08-18T13:29:25.649Z,2464.00
2018-08-18T13:30:25.626Z,2492.00
2018-08-18T13:31:25.621Z,2504.00
2018-08-18T13:32:25.614Z,2500.00
2018-08-18T13:33:25.594Z,2508.00
2018-08-18T13:34:25.593Z,2520.00
2018-08-18T13:35:25.579Z,2532.00
2018-08-18T13:36:25.563Z,2576.00
2018-08-18T13:37:25.550Z,2584.00
2018-08-18T13:38:25.539Z,2596.00
2018-08-18T13:39:25.538Z,2548.00
2018-08-18T13:40:25.548Z,2468.00
2018-08-18T13:41:25.504Z,2376.00
2018-08-18T13:42:25.496Z,2320.00
2018-08-18T13:43:25.484Z,2296.00
2018-08-18T13:44:25.486Z,2284.00
2018-08-18T13:45:25.463Z,2276.00
2018-08-18T13:46:25.452Z,2304.00
2018-08-18T13:47:25.441Z,2356.00
2018-08-18T13:48:25.430Z,2404.00
2018-08-18T13:49:25.515Z,2416.00
2018-08-18T13:50:25.407Z,2384.00
2018-08-18T13:51:25.399Z,2272.00
2018-08-18T13:52:25.387Z,2304.00
2018-08-18T13:53:25.376Z,2424.00
2018-08-18T13:54:25.374Z,2532.00
2018-08-18T13:55:25.353Z,2552.00
2018-08-18T13:56:25.341Z,2476.00
2018-08-18T13:57:25.332Z,2424.00
2018-08-18T13:58:25.322Z,2400.00
2018-08-18T13:59:25.320Z,2436.00
2018-08-18T14:00:25.299Z,2468.00
2018-08-18T14:01:25.287Z,2492.00
2018-08-18T14:02:25.277Z,2520.00
2018-08-18T14:03:25.265Z,2496.00
2018-08-18T14:04:25.431Z,2424.00
2018-08-18T14:05:25.244Z,2372.00
2018-08-18T14:06:25.239Z,2356.00
2018-08-18T14:07:25.222Z,2336.00
2018-08-18T14:08:25.211Z,2308.00
2018-08-18T14:09:25.213Z,2328.00
2018-08-18T14:10:25.188Z,2408.00
2018-08-18T14:11:25.177Z,2436.00
2018-08-18T14:12:25.168Z,2304.00
2018-08-18T14:13:25.157Z,2184.00
2018-08-18T14:14:25.159Z,2180.00
2018-08-18T14:15:25.134Z,2240.00
2018-08-18T14:16:25.124Z,2300.00
2018-08-18T14:17:25.121Z,2332.00
2018-08-18T14:18:25.113Z,2372.00
2018-08-18T14:19:25.109Z,2452.00
2018-08-18T14:20:25.080Z,2556.00
2018-08-18T14:21:25.068Z,2580.00
2018-08-18T14:22:25.063Z,2532.00
2018-08-18T14:23:25.059Z,2520.00
2018-08-18T14:24:25.047Z,2576.00
2018-08-18T14:25:25.024Z,2592.00
2018-08-18T14:26:25.012Z,2600.00
2018-08-18T14:27:25.026Z,2460.00
2018-08-18T14:28:25.050Z,2300.00
2018-08-18T14:29:24.993Z,2172.00
2018-08-18T14:30:24.968Z,2112.00
2018-08-18T14:31:24.958Z,2100.00
2018-08-18T14:32:24.948Z,2100.00
2018-08-18T14:33:24.936Z,2048.00
2018-08-18T14:34:24.962Z,1872.00
2018-08-18T14:35:24.915Z,1852.00
2018-08-18T14:36:24.910Z,2128.00
2018-08-18T14:37:24.894Z,2104.00
2018-08-18T14:38:24.881Z,2096.00
2018-08-18T14:39:24.882Z,2136.00
2018-08-18T14:40:24.867Z,2144.00
2018-08-18T14:41:24.852Z,2072.00
2018-08-18T14:42:24.859Z,2008.00
2018-08-18T14:43:24.829Z,2012.00
2018-08-18T14:44:24.829Z,2076.00
2018-08-18T14:45:24.808Z,2176.00
2018-08-18T14:46:24.801Z,2248.00
2018-08-18T14:47:24.783Z,2284.00
2018-08-18T14:48:24.771Z,2284.00
2018-08-18T14:49:24.786Z,2248.00
2018-08-18T14:50:24.752Z,2208.00
2018-08-18T14:51:24.740Z,2128.00
2018-08-18T14:52:24.728Z,2032.00
2018-08-18T14:53:25.450Z,1972.00
2018-08-18T14:54:24.766Z,1960.00
2018-08-18T14:55:24.708Z,1952.00
2018-08-18T14:56:24.687Z,1920.00
2018-08-18T14:57:24.674Z,1892.00
2018-08-18T14:58:25.901Z,1852.00
2018-08-18T14:59:24.653Z,1820.00
2018-08-18T15:00:24.651Z,1740.00
2018-08-18T15:01:24.630Z,1764.00
2018-08-18T15:02:24.617Z,1776.00
2018-08-18T15:03:24.608Z,1816.00
2018-08-18T15:04:24.684Z,1728.00
2018-08-18T15:05:24.595Z,1696.00
2018-08-18T15:06:24.576Z,1708.00
2018-08-18T15:07:24.565Z,1716.00
2018-08-18T15:08:24.557Z,1736.00
2018-08-18T15:09:24.542Z,1752.00
2018-08-18T15:10:24.543Z,1736.00
2018-08-18T15:11:24.522Z,1712.00
2018-08-18T15:12:24.509Z,1644.00
2018-08-18T15:13:24.529Z,1600.00
2018-08-18T15:14:24.492Z,1572.00
2018-08-18T15:15:24.529Z,1540.00
2018-08-18T15:16:24.466Z,1548.00
2018-08-18T15:17:24.518Z,1544.00
2018-08-18T15:18:24.444Z,1532.00
2018-08-18T15:19:24.440Z,1504.00
2018-08-18T15:20:24.432Z,1476.00
2018-08-18T15:21:24.412Z,1444.00
2018-08-18T15:22:24.399Z,1436.00
2018-08-18T15:23:24.406Z,1432.00
2018-08-18T15:24:25.323Z,1432.00
2018-08-18T15:25:24.377Z,1436.00
2018-08-18T15:26:24.358Z,1436.00
2018-08-18T15:27:24.347Z,1428.00
2018-08-18T15:28:24.332Z,1408.00
2018-08-18T15:29:24.323Z,1384.00
2018-08-18T15:30:24.321Z,1384.00
2018-08-18T15:31:24.302Z,1388.00
2018-08-18T15:32:24.291Z,1384.00
2018-08-18T15:33:24.287Z,1388.00
2018-08-18T15:34:24.270Z,1384.00
2018-08-18T15:35:24.271Z,1392.00
2018-08-18T15:36:24.246Z,1380.00
2018-08-18T15:37:24.237Z,1376.00
2018-08-18T15:38:24.224Z,1360.00
2018-08-18T15:39:24.222Z,1356.00
2018-08-18T15:40:24.213Z,1352.00
2018-08-18T15:41:24.192Z,1360.00
2018-08-18T15:42:24.179Z,1364.00
2018-08-18T15:43:24.170Z,1372.00
2018-08-18T15:44:24.158Z,1372.00
2018-08-18T15:45:24.157Z,1376.00
2018-08-18T15:46:24.143Z,1376.00
2018-08-18T15:47:24.125Z,1372.00
2018-08-18T15:48:24.121Z,1364.00
2018-08-18T15:49:24.102Z,1344.00
2018-08-18T15:50:24.103Z,1336.00
2018-08-18T15:51:24.083Z,1332.00
2018-08-18T15:52:24.071Z,1320.00
2018-08-18T15:53:24.068Z,1312.00
2018-08-18T15:54:24.129Z,1304.00
2018-08-18T15:55:24.051Z,1292.00
2018-08-18T15:56:24.027Z,1304.00
2018-08-18T15:57:24.016Z,1296.00
2018-08-18T15:58:24.003Z,1292.00
2018-08-18T15:59:23.992Z,1284.00
2018-08-18T16:00:23.990Z,1280.00
2018-08-18T16:01:23.981Z,1280.00
2018-08-18T16:02:23.964Z,1288.00
2018-08-18T16:03:25.235Z,1288.00
2018-08-18T16:04:25.196Z,1296.00
2018-08-18T16:05:23.971Z,1296.00
2018-08-18T16:06:23.918Z,1288.00
2018-08-18T16:07:23.904Z,1280.00